createdAt,value
2019-03-24T00:13:42.072Z,-2.14
2019-03-24T00:17:43.564Z,-2.14
2019-03-24T00:18:42.806Z,-2.14
2019-03-24T00:21:44.443Z,-2.14
2019-03-24T00:22:45.641Z,-2.14
2019-03-24T00:25:49.731Z,-2.14
2019-03-24T00:29:48.613Z,-2.15
2019-03-24T00:30:49.218Z,-2.14
2019-03-24T00:37:51.905Z,-2.16
2019-03-24T00:38:54.052Z,-2.16
2019-03-24T00:39:55.143Z,-2.16
2019-03-24T00:41:57.907Z,-2.15
2019-03-24T00:42:55.293Z,-2.14
2019-03-24T00:47:57.673Z,-2.16
2019-03-24T00:48:58.363Z,-2.16
2019-03-24T00:51:59.207Z,-2.16
2019-03-24T00:55:01.927Z,-2.16
2019-03-24T00:56:03.988Z,-2.16
2019-03-24T00:57:02.838Z,-2.16
2019-03-24T01:03:03.618Z,-2.17
2019-03-24T01:05:04.758Z,-2.16
2019-03-24T01:07:06.607Z,-2.16
2019-03-24T01:09:08.698Z,-2.17
2019-03-24T01:11:08.045Z,-2.17
2019-03-24T01:12:09.154Z,-2.18
2019-03-24T01:17:10.483Z,-2.18
2019-03-24T01:19:12.196Z,-2.18
2019-03-24T01:21:13.348Z,-2.18
2019-03-24T01:24:13.800Z,-2.19
2019-03-24T01:30:16.345Z,-2.20
2019-03-24T01:31:16.614Z,-2.20
2019-03-24T01:32:20.117Z,-2.18
2019-03-24T01:35:20.526Z,-2.19
2019-03-24T01:37:19.638Z,-2.20
2019-03-24T01:38:19.906Z,-2.20
2019-03-24T01:39:20.780Z,-2.21
2019-03-24T01:41:22.531Z,-2.21
2019-03-24T01:42:21.591Z,-2.22
2019-03-24T01:44:22.731Z,-2.21
2019-03-24T01:45:23.000Z,-2.22
2019-03-24T01:46:23.673Z,-2.22
2019-03-24T01:49:27.095Z,-2.21
2019-03-24T01:51:27.019Z,-2.22
2019-03-24T01:53:26.772Z,-2.22
2019-03-24T01:56:29.451Z,-2.22
2019-03-24T01:57:28.661Z,-2.21
2019-03-24T02:00:33.304Z,-2.22
2019-03-24T02:01:32.384Z,-2.22
2019-03-24T02:04:33.246Z,-2.23
2019-03-24T02:09:34.399Z,-2.22
2019-03-24T02:14:37.151Z,-2.23
2019-03-24T02:15:39.350Z,-2.24
2019-03-24T02:16:37.619Z,-2.24
2019-03-24T02:17:38.292Z,-2.25
2019-03-24T02:18:39.041Z,-2.24
2019-03-24T02:19:39.438Z,-2.24
2019-03-24T02:21:41.466Z,-2.26
2019-03-24T02:23:40.939Z,-2.25
2019-03-24T02:29:44.774Z,-2.26
2019-03-24T02:31:46.346Z,-2.26
2019-03-24T02:34:56.783Z,-2.26
2019-03-24T02:36:47.464Z,-2.26
2019-03-24T02:37:48.543Z,-2.26
2019-03-24T02:39:49.924Z,-2.27
2019-03-24T02:40:53.969Z,-2.28
2019-03-24T02:41:49.418Z,-2.26
2019-03-24T02:42:50.090Z,-2.26
2019-03-24T02:43:51.773Z,-2.27
2019-03-24T02:44:51.485Z,-2.26
2019-03-24T02:45:51.907Z,-2.27
2019-03-24T02:49:53.176Z,-2.28
2019-03-24T02:50:54.739Z,-2.28
2019-03-24T02:53:55.062Z,-2.30
2019-03-24T02:54:55.929Z,-2.30
2019-03-24T03:05:00.630Z,-2.30
2019-03-24T03:08:01.677Z,-2.32
2019-03-24T03:10:03.353Z,-2.31
2019-03-24T03:12:04.092Z,-2.31
2019-03-24T03:13:04.707Z,-2.31
2019-03-24T03:14:05.449Z,-2.33
2019-03-24T03:16:06.098Z,-2.31
2019-03-24T03:17:06.021Z,-2.32
2019-03-24T03:18:07.372Z,-2.32
2019-03-24T03:19:12.457Z,-2.33
2019-03-24T03:21:08.097Z,-2.33
2019-03-24T03:28:10.975Z,-2.34
2019-03-24T03:30:13.399Z,-2.36
2019-03-24T03:31:14.758Z,-2.34
2019-03-24T03:34:13.999Z,-2.35
2019-03-24T03:40:16.614Z,-2.35
2019-03-24T03:41:17.096Z,-2.36
2019-03-24T03:42:17.555Z,-2.35
2019-03-24T03:43:18.226Z,-2.36
2019-03-24T03:46:20.894Z,-2.35
2019-03-24T03:48:21.994Z,-2.37
2019-03-24T03:49:22.084Z,-2.37
2019-03-24T03:50:24.772Z,-2.36
2019-03-24T03:51:24.820Z,-2.38
2019-03-24T03:58:25.440Z,-2.37
2019-03-24T04:00:27.443Z,-2.36
2019-03-24T04:01:27.101Z,-2.38
2019-03-24T04:02:28.169Z,-2.38
2019-03-24T04:07:29.732Z,-2.38
2019-03-24T04:12:31.682Z,-2.38
2019-03-24T04:14:35.660Z,-2.39
2019-03-24T04:19:42.092Z,-2.40
2019-03-24T04:20:36.265Z,-2.40
2019-03-24T04:21:44.983Z,-2.40
2019-03-24T04:24:38.150Z,-2.38
2019-03-24T04:26:39.902Z,-2.40
2019-03-24T04:29:40.065Z,-2.42
2019-03-24T04:35:45.820Z,-2.40
2019-03-24T04:36:43.206Z,-2.40
2019-03-24T04:40:46.161Z,-2.41
2019-03-24T04:41:45.612Z,-2.40
2019-03-24T04:42:47.852Z,-2.41
2019-03-24T04:46:48.615Z,-2.42
2019-03-24T04:47:49.411Z,-2.41
2019-03-24T04:52:52.446Z,-2.41
2019-03-24T04:54:54.947Z,-2.40
2019-03-24T04:55:53.783Z,-2.41
2019-03-24T04:56:53.930Z,-2.40
2019-03-24T04:59:53.861Z,-2.40
2019-03-24T05:04:06.408Z,-2.40
2019-03-24T05:04:57.820Z,-2.40
2019-03-24T05:10:00.390Z,-2.38
2019-03-24T05:10:59.236Z,-2.40
2019-03-24T05:17:03.325Z,-2.40
2019-03-24T05:18:02.922Z,-2.41
2019-03-24T05:20:03.449Z,-2.39
2019-03-24T05:21:03.920Z,-2.40
2019-03-24T05:23:04.857Z,-2.40
2019-03-24T05:24:05.324Z,-2.40
2019-03-24T05:26:06.539Z,-2.40
2019-03-24T05:27:06.805Z,-2.40
2019-03-24T05:31:09.003Z,-2.42
2019-03-24T05:36:11.623Z,-2.40
2019-03-24T05:38:12.355Z,-2.42
2019-03-24T05:39:12.343Z,-2.41
2019-03-24T05:40:12.682Z,-2.40
2019-03-24T05:46:17.094Z,-2.42
2019-03-24T05:51:23.002Z,-2.41
2019-03-24T05:58:21.062Z,-2.40
2019-03-24T05:59:22.153Z,-2.40
2019-03-24T06:04:25.561Z,-2.41
2019-03-24T06:05:24.755Z,-2.40
2019-03-24T06:06:25.631Z,-2.40
2019-03-24T06:08:26.369Z,-2.41
2019-03-24T06:14:30.456Z,-2.42
2019-03-24T06:16:29.527Z,-2.42
2019-03-24T06:17:31.401Z,-2.42
2019-03-24T06:22:32.965Z,-2.40
2019-03-24T06:23:33.507Z,-2.42
2019-03-24T06:26:34.516Z,-2.42
2019-03-24T06:27:35.212Z,-2.40
2019-03-24T06:28:35.390Z,-2.42
2019-03-24T06:30:36.800Z,-2.41
2019-03-24T06:31:38.005Z,-2.42
2019-03-24T06:34:38.422Z,-2.42
2019-03-24T06:36:39.563Z,-2.40
2019-03-24T06:39:40.373Z,-2.42
2019-03-24T06:40:41.120Z,-2.40
2019-03-24T06:45:43.650Z,-2.40
2019-03-24T06:46:44.485Z,-2.40
2019-03-24T06:48:50.067Z,-2.40
2019-03-24T06:50:46.171Z,-2.41
2019-03-24T06:53:47.640Z,-2.40
2019-03-24T06:59:51.437Z,-2.38
2019-03-24T07:01:53.490Z,-2.40
2019-03-24T07:02:51.441Z,-2.40
2019-03-24T07:03:51.910Z,-2.40
2019-03-24T07:07:54.054Z,-2.40
2019-03-24T07:09:56.419Z,-2.40
2019-03-24T07:10:55.008Z,-2.40
2019-03-24T07:12:59.387Z,-2.39
2019-03-24T07:24:03.123Z,-2.39
2019-03-24T07:25:04.689Z,-2.38
2019-03-24T07:27:02.927Z,-2.40
2019-03-24T07:29:04.066Z,-2.40
2019-03-24T07:30:03.928Z,-2.38
2019-03-24T07:32:05.286Z,-2.40
2019-03-24T07:36:07.142Z,-2.39
2019-03-24T07:37:08.406Z,-2.39
2019-03-24T07:38:08.687Z,-2.38
2019-03-24T07:41:22.017Z,-2.38
2019-03-24T07:42:11.641Z,-2.38
2019-03-24T07:43:10.565Z,-2.38
2019-03-24T07:44:11.093Z,-2.38
2019-03-24T07:46:11.826Z,-2.37
2019-03-24T07:47:12.492Z,-2.38
2019-03-24T07:49:12.825Z,-2.37
2019-03-24T07:50:13.495Z,-2.39
2019-03-24T07:52:17.467Z,-2.38
2019-03-24T07:53:16.240Z,-2.38
2019-03-24T07:55:17.084Z,-2.36
2019-03-24T07:56:16.738Z,-2.38
2019-03-24T08:00:17.991Z,-2.36
2019-03-24T08:02:19.506Z,-2.37
2019-03-24T08:06:22.414Z,-2.37
2019-03-24T08:08:24.243Z,-2.38
2019-03-24T08:13:24.449Z,-2.36
2019-03-24T08:14:25.439Z,-2.36
2019-03-24T08:17:26.473Z,-2.36
2019-03-24T08:20:27.816Z,-2.37
2019-03-24T08:25:36.980Z,-2.34
2019-03-24T08:27:32.128Z,-2.34
2019-03-24T08:31:47.661Z,-2.35
2019-03-24T08:44:10.425Z,-2.35
2019-03-24T08:50:09.805Z,-2.34
2019-03-24T08:52:16.061Z,-2.33
2019-03-24T08:59:29.101Z,-2.34
2019-03-24T09:01:29.726Z,-2.34
2019-03-24T09:06:31.923Z,-2.32
2019-03-24T09:24:54.755Z,-2.34
2019-03-24T09:26:56.405Z,-2.32
2019-03-24T09:29:57.949Z,-2.32
2019-03-24T09:32:00.365Z,-2.32
2019-03-24T09:41:02.299Z,-2.32
2019-03-24T09:42:02.231Z,-2.30
2019-03-24T09:47:05.186Z,-2.32
2019-03-24T09:52:06.932Z,-2.30
2019-03-24T09:54:08.074Z,-2.32
2019-03-24T09:55:09.758Z,-2.30
2019-03-24T09:56:10.418Z,-2.30
2019-03-24T09:58:11.714Z,-2.30
2019-03-24T10:00:10.899Z,-2.30
2019-03-24T10:04:12.581Z,-2.30
2019-03-24T10:09:16.794Z,-2.31
2019-03-24T10:10:15.206Z,-2.30
2019-03-24T10:11:18.509Z,-2.30
2019-03-24T10:13:16.621Z,-2.29
2019-03-24T10:15:18.183Z,-2.30
2019-03-24T10:16:18.239Z,-2.30
2019-03-24T10:18:18.986Z,-2.28
2019-03-24T10:20:20.125Z,-2.29
2019-03-24T10:23:22.081Z,-2.29
2019-03-24T10:25:29.698Z,-2.30
2019-03-24T10:26:22.755Z,-2.30
2019-03-24T10:28:23.901Z,-2.28
2019-03-24T10:29:24.378Z,-2.28
2019-03-24T10:30:25.048Z,-2.28
2019-03-24T10:32:26.195Z,-2.29
2019-03-24T10:36:28.085Z,-2.28
2019-03-24T10:37:28.150Z,-2.28
2019-03-24T10:38:28.424Z,-2.29
2019-03-24T10:39:29.096Z,-2.30
2019-03-24T10:40:29.573Z,-2.29
2019-03-24T10:43:31.184Z,-2.29
2019-03-24T10:44:32.061Z,-2.30
2019-03-24T10:45:33.118Z,-2.30
2019-03-24T10:48:34.549Z,-2.30
2019-03-24T10:50:35.271Z,-2.30
2019-03-24T10:51:34.949Z,-2.30
2019-03-24T10:54:37.145Z,-2.30
2019-03-24T10:56:36.888Z,-2.28
2019-03-24T11:00:38.964Z,-2.30
2019-03-24T11:01:39.435Z,-2.29
2019-03-24T11:02:39.696Z,-2.30
2019-03-24T11:03:40.367Z,-2.28
2019-03-24T11:04:40.683Z,-2.28
2019-03-24T11:05:41.366Z,-2.30
2019-03-24T11:06:41.770Z,-2.30
2019-03-24T11:07:42.039Z,-2.30
2019-03-24T11:08:42.707Z,-2.28
2019-03-24T11:09:44.999Z,-2.30
2019-03-24T11:10:44.454Z,-2.29
2019-03-24T11:11:44.316Z,-2.30
2019-03-24T11:12:44.377Z,-2.29
2019-03-24T11:13:44.846Z,-2.31
2019-03-24T11:14:45.470Z,-2.29
2019-03-24T11:16:46.252Z,-2.30
2019-03-24T11:17:46.924Z,-2.30
2019-03-24T11:20:48.127Z,-2.30
2019-03-24T11:21:48.594Z,-2.30
2019-03-24T11:22:49.065Z,-2.31
2019-03-24T11:24:50.209Z,-2.30
2019-03-24T11:25:50.676Z,-2.29
2019-03-24T11:26:50.940Z,-2.30
2019-03-24T11:28:51.881Z,-2.30
2019-03-24T11:29:52.552Z,-2.30
2019-03-24T11:30:52.817Z,-2.30
2019-03-24T11:31:54.098Z,-2.30
2019-03-24T11:32:53.758Z,-2.30
2019-03-24T11:35:55.166Z,-2.30
2019-03-24T11:37:56.108Z,-2.30
2019-03-24T11:38:59.014Z,-2.31
2019-03-24T11:39:57.049Z,-2.30
2019-03-24T11:40:57.517Z,-2.30
2019-03-24T11:41:57.993Z,-2.30
2019-03-24T11:42:58.659Z,-2.30
2019-03-24T11:44:59.398Z,-2.31
2019-03-24T11:46:00.071Z,-2.30
2019-03-24T11:47:00.340Z,-2.30
2019-03-24T11:48:00.812Z,-2.32
2019-03-24T11:49:01.486Z,-2.31
2019-03-24T11:51:02.225Z,-2.30
2019-03-24T11:52:02.899Z,-2.32
2019-03-24T11:53:03.371Z,-2.31
2019-03-24T11:55:04.110Z,-2.30
2019-03-24T11:56:04.579Z,-2.30
2019-03-24T11:57:05.051Z,-2.31
2019-03-24T12:00:06.466Z,-2.30
2019-03-24T12:02:07.409Z,-2.30
2019-03-24T12:03:07.882Z,-2.30
2019-03-24T12:04:08.350Z,-2.30
2019-03-24T12:05:09.076Z,-2.29
2019-03-24T12:06:14.547Z,-2.30
2019-03-24T12:08:10.519Z,-2.32
2019-03-24T12:09:10.709Z,-2.31
2019-03-24T12:10:11.387Z,-2.30
2019-03-24T12:11:11.858Z,-2.30
2019-03-24T12:12:12.338Z,-2.31
2019-03-24T12:13:12.599Z,-2.31
2019-03-24T12:14:13.271Z,-2.30
2019-03-24T12:15:13.541Z,-2.30
2019-03-24T12:16:14.014Z,-2.30
2019-03-24T12:17:14.487Z,-2.30
2019-03-24T12:18:15.158Z,-2.30
2019-03-24T12:19:15.428Z,-2.30
2019-03-24T12:20:15.902Z,-2.30
2019-03-24T12:21:16.581Z,-2.28
2019-03-24T12:22:17.049Z,-2.28
2019-03-24T12:23:17.322Z,-2.30
2019-03-24T12:24:18.197Z,-2.29
2019-03-24T12:25:18.264Z,-2.29
2019-03-24T12:26:18.733Z,-2.30
2019-03-24T12:27:19.211Z,-2.28
2019-03-24T12:28:19.680Z,-2.29
2019-03-24T12:29:20.154Z,-2.29
2019-03-24T12:30:20.623Z,-2.28
2019-03-24T12:32:21.570Z,-2.28
2019-03-24T12:33:22.043Z,-2.28
2019-03-24T12:34:22.513Z,-2.30
2019-03-24T12:35:22.984Z,-2.29
2019-03-24T12:37:23.929Z,-2.28
2019-03-24T12:38:24.399Z,-2.29
2019-03-24T12:39:24.871Z,-2.29
2019-03-24T12:40:25.342Z,-2.28
2019-03-24T12:41:25.812Z,-2.30
2019-03-24T12:42:26.487Z,-2.29
2019-03-24T12:43:26.954Z,-2.29
2019-03-24T12:44:27.228Z,-2.28
2019-03-24T12:45:27.693Z,-2.30
2019-03-24T12:46:28.163Z,-2.28
2019-03-24T12:47:28.633Z,-2.28
2019-03-24T12:48:29.127Z,-2.29
2019-03-24T12:49:29.568Z,-2.27
2019-03-24T12:50:31.629Z,-2.30
2019-03-24T12:51:30.508Z,-2.28
2019-03-24T12:52:30.977Z,-2.28
2019-03-24T12:53:31.443Z,-2.28
2019-03-24T12:54:31.955Z,-2.28
2019-03-24T12:55:32.380Z,-2.29
2019-03-24T12:56:32.850Z,-2.30
2019-03-24T12:57:33.319Z,-2.29
2019-03-24T12:58:33.784Z,-2.26
2019-03-24T12:59:34.255Z,-2.28
2019-03-24T13:00:34.723Z,-2.29
2019-03-24T13:01:35.194Z,-2.28
2019-03-24T13:02:35.861Z,-2.29
2019-03-24T13:04:36.596Z,-2.28
2019-03-24T13:05:37.119Z,-2.27
2019-03-24T13:06:37.530Z,-2.27
2019-03-24T13:08:38.478Z,-2.29
2019-03-24T13:09:39.136Z,-2.28
2019-03-24T13:10:39.607Z,-2.29
2019-03-24T13:11:39.872Z,-2.28
2019-03-24T13:12:40.348Z,-2.28
2019-03-24T13:13:41.012Z,-2.30
2019-03-24T13:15:41.755Z,-2.28
2019-03-24T13:16:42.220Z,-2.29
2019-03-24T13:17:42.685Z,-2.28
2019-03-24T13:18:43.357Z,-2.30
2019-03-24T13:19:43.629Z,-2.29
2019-03-24T13:20:44.095Z,-2.30
2019-03-24T13:21:44.964Z,-2.29
2019-03-24T13:22:45.435Z,-2.28
2019-03-24T13:23:45.501Z,-2.28
2019-03-24T13:24:45.969Z,-2.28
2019-03-24T13:25:46.444Z,-2.28
2019-03-24T13:26:46.906Z,-2.28
2019-03-24T13:27:47.377Z,-2.28
2019-03-24T13:29:48.319Z,-2.28
2019-03-24T13:30:48.787Z,-2.28
2019-03-24T13:31:49.258Z,-2.28
2019-03-24T13:33:50.198Z,-2.29
2019-03-24T13:34:51.070Z,-2.29
2019-03-24T13:35:51.340Z,-2.30
2019-03-24T13:36:51.606Z,-2.30
2019-03-24T13:38:52.751Z,-2.30
2019-03-24T13:39:53.017Z,-2.30
2019-03-24T13:40:53.492Z,-2.30
2019-03-24T13:41:53.960Z,-2.30
2019-03-24T13:42:54.433Z,-2.30
2019-03-24T13:43:54.903Z,-2.29
2019-03-24T13:44:55.372Z,-2.30
2019-03-24T13:45:57.355Z,-2.30
2019-03-24T13:46:57.326Z,-2.28
2019-03-24T13:47:57.187Z,-2.30
2019-03-24T13:48:57.255Z,-2.30
2019-03-24T13:49:57.727Z,-2.30
2019-03-24T13:50:58.201Z,-2.30
2019-03-24T13:51:58.671Z,-2.30
2019-03-24T13:52:59.152Z,-2.30
2019-03-24T13:53:59.614Z,-2.29
2019-03-24T13:55:00.121Z,-2.28
2019-03-24T13:56:00.759Z,-2.30
2019-03-24T13:57:01.029Z,-2.30
2019-03-24T13:58:01.500Z,-2.29
2019-03-24T13:59:01.971Z,-2.29
2019-03-24T14:01:03.166Z,-2.29
2019-03-24T14:02:03.385Z,-2.30
2019-03-24T14:03:03.855Z,-2.30
2019-03-24T14:04:04.328Z,-2.30
2019-03-24T14:05:04.803Z,-2.30
2019-03-24T14:06:05.273Z,-2.30
2019-03-24T14:07:05.754Z,-2.31
2019-03-24T14:08:06.215Z,-2.30
2019-03-24T14:09:06.689Z,-2.32
2019-03-24T14:11:07.835Z,-2.32
2019-03-24T14:12:08.306Z,-2.30
2019-03-24T14:13:08.578Z,-2.30
2019-03-24T14:14:09.050Z,-2.32
2019-03-24T14:17:10.467Z,-2.32
2019-03-24T14:18:10.937Z,-2.31
2019-03-24T14:19:11.413Z,-2.31
2019-03-24T14:20:11.882Z,-2.32
2019-03-24T14:21:12.357Z,-2.30
2019-03-24T14:22:12.828Z,-2.31
2019-03-24T14:23:13.299Z,-2.32
2019-03-24T14:24:13.972Z,-2.30
2019-03-24T14:25:14.446Z,-2.32
2019-03-24T14:26:14.918Z,-2.32
2019-03-24T14:27:15.197Z,-2.32
2019-03-24T14:28:15.658Z,-2.32
2019-03-24T14:29:16.131Z,-2.30
2019-03-24T14:30:16.605Z,-2.32
2019-03-24T14:31:17.075Z,-2.32
2019-03-24T14:32:17.546Z,-2.31
2019-03-24T14:33:18.020Z,-2.32
2019-03-24T14:34:18.694Z,-2.31
2019-03-24T14:35:18.964Z,-2.32
2019-03-24T14:36:19.431Z,-2.32
2019-03-24T14:38:20.374Z,-2.32
2019-03-24T14:39:20.842Z,-2.32
2019-03-24T14:40:21.717Z,-2.32
2019-03-24T14:41:21.982Z,-2.32
2019-03-24T14:42:22.252Z,-2.34
2019-03-24T14:43:22.722Z,-2.33
2019-03-24T14:44:23.190Z,-2.34
2019-03-24T14:45:23.862Z,-2.34
2019-03-24T14:46:24.341Z,-2.34
2019-03-24T14:47:24.600Z,-2.34
2019-03-24T14:49:25.533Z,-2.33
2019-03-24T14:50:26.314Z,-2.34
2019-03-24T14:51:26.469Z,-2.34
2019-03-24T14:52:26.958Z,-2.33
2019-03-24T14:53:27.408Z,-2.32
2019-03-24T14:54:27.880Z,-2.33
2019-03-24T14:55:28.545Z,-2.34
2019-03-24T14:56:28.813Z,-2.34
2019-03-24T14:57:29.279Z,-2.32
2019-03-24T14:58:29.754Z,-2.34
2019-03-24T14:59:30.217Z,-2.34
2019-03-24T15:00:30.722Z,-2.35
2019-03-24T15:01:31.158Z,-2.34
2019-03-24T15:02:31.825Z,-2.35
2019-03-24T15:03:32.089Z,-2.34
2019-03-24T15:04:32.557Z,-2.34
2019-03-24T15:05:33.028Z,-2.35
2019-03-24T15:06:33.695Z,-2.35
2019-03-24T15:07:33.961Z,-2.34
2019-03-24T15:08:34.430Z,-2.34
2019-03-24T15:10:35.576Z,-2.34
2019-03-24T15:11:36.039Z,-2.35
2019-03-24T15:13:36.774Z,-2.36
2019-03-24T15:14:37.246Z,-2.36
2019-03-24T15:15:37.716Z,-2.36
2019-03-24T15:16:38.389Z,-2.34
2019-03-24T15:17:38.653Z,-2.36
2019-03-24T15:18:39.122Z,-2.35
2019-03-24T15:19:39.997Z,-2.36
2019-03-24T15:20:40.059Z,-2.37
2019-03-24T15:21:40.735Z,-2.36
2019-03-24T15:22:41.005Z,-2.36
2019-03-24T15:23:41.695Z,-2.36
2019-03-24T15:24:42.140Z,-2.36
2019-03-24T15:26:43.557Z,-2.38
2019-03-24T15:27:43.348Z,-2.36
2019-03-24T15:28:44.022Z,-2.38
2019-03-24T15:29:44.289Z,-2.38
2019-03-24T15:30:44.762Z,-2.38
2019-03-24T15:31:45.297Z,-2.36
2019-03-24T15:34:46.645Z,-2.36
2019-03-24T15:35:47.112Z,-2.38
2019-03-24T15:36:48.997Z,-2.36
2019-03-24T15:37:48.055Z,-2.36
2019-03-24T15:38:48.932Z,-2.38
2019-03-24T15:40:49.877Z,-2.38
2019-03-24T15:41:50.399Z,-2.38
2019-03-24T15:42:50.612Z,-2.36
2019-03-24T15:43:50.881Z,-2.38
2019-03-24T15:44:53.152Z,-2.40
2019-03-24T15:45:51.824Z,-2.39
2019-03-24T15:46:52.350Z,-2.38
2019-03-24T15:48:53.643Z,-2.39
2019-03-24T15:49:53.708Z,-2.38
2019-03-24T15:50:54.182Z,-2.38
2019-03-24T15:51:54.655Z,-2.40
2019-03-24T15:52:55.123Z,-2.38
2019-03-24T15:54:56.272Z,-2.39
2019-03-24T15:55:56.815Z,-2.40
2019-03-24T15:56:57.214Z,-2.38
2019-03-24T15:57:57.690Z,-2.38
2019-03-24T15:58:57.953Z,-2.38
2019-03-24T15:59:58.635Z,-2.38
2019-03-24T16:00:59.100Z,-2.38
2019-03-24T16:01:59.372Z,-2.38
2019-03-24T16:03:00.045Z,-2.39
2019-03-24T16:04:00.518Z,-2.38
2019-03-24T16:05:00.786Z,-2.40
2019-03-24T16:07:01.935Z,-2.40
2019-03-24T16:08:02.609Z,-2.40
2019-03-24T16:09:02.876Z,-2.40
2019-03-24T16:13:04.907Z,-2.42
2019-03-24T16:14:05.037Z,-2.42
2019-03-24T16:15:06.925Z,-2.42
2019-03-24T16:16:06.187Z,-2.42
2019-03-24T16:17:06.455Z,-2.42
2019-03-24T16:18:06.928Z,-2.41
2019-03-24T16:19:07.399Z,-2.42
2019-03-24T16:21:08.546Z,-2.40
2019-03-24T16:22:09.016Z,-2.40
2019-03-24T16:23:09.300Z,-2.42
2019-03-24T16:24:09.753Z,-2.42
2019-03-24T16:25:10.226Z,-2.44
2019-03-24T16:26:11.304Z,-2.42
2019-03-24T16:28:11.637Z,-2.42
2019-03-24T16:30:12.780Z,-2.42
2019-03-24T16:31:13.044Z,-2.41
2019-03-24T16:32:13.519Z,-2.44
2019-03-24T16:33:13.991Z,-2.42
2019-03-24T16:34:14.658Z,-2.42
2019-03-24T16:35:14.925Z,-2.42
2019-03-24T16:36:15.389Z,-2.42
2019-03-24T16:37:15.860Z,-2.42
2019-03-24T16:38:16.532Z,-2.44
2019-03-24T16:39:16.798Z,-2.42
2019-03-24T16:40:17.264Z,-2.42
2019-03-24T16:41:17.733Z,-2.41
2019-03-24T16:42:18.203Z,-2.42
2019-03-24T16:43:18.669Z,-2.44
2019-03-24T16:45:19.808Z,-2.42
2019-03-24T16:46:20.081Z,-2.42
2019-03-24T16:47:20.747Z,-2.42
2019-03-24T16:48:21.014Z,-2.41
2019-03-24T16:49:21.681Z,-2.42
2019-03-24T16:50:21.950Z,-2.42
2019-03-24T16:51:22.622Z,-2.43
2019-03-24T16:52:22.885Z,-2.42
2019-03-24T16:53:23.351Z,-2.43
2019-03-24T16:54:24.022Z,-2.43
2019-03-24T16:55:24.498Z,-2.44
2019-03-24T16:56:24.756Z,-2.42
2019-03-24T16:57:25.429Z,-2.41
2019-03-24T16:58:25.704Z,-2.42
2019-03-24T16:59:26.174Z,-2.42
2019-03-24T17:00:26.835Z,-2.42
2019-03-24T17:01:27.505Z,-2.42
2019-03-24T17:02:27.622Z,-2.43
2019-03-24T17:03:28.242Z,-2.42
2019-03-24T17:04:28.506Z,-2.42
2019-03-24T17:05:28.977Z,-2.42
2019-03-24T17:06:29.448Z,-2.42
2019-03-24T17:07:29.922Z,-2.42
2019-03-24T17:08:30.387Z,-2.44
2019-03-24T17:09:31.227Z,-2.42
2019-03-24T17:10:31.327Z,-2.42
2019-03-24T17:11:32.142Z,-2.42
2019-03-24T17:12:32.264Z,-2.42
2019-03-24T17:13:32.940Z,-2.43
2019-03-24T17:14:33.610Z,-2.42
2019-03-24T17:15:33.881Z,-2.42
2019-03-24T17:16:34.147Z,-2.43
2019-03-24T17:17:34.616Z,-2.42
2019-03-24T17:18:35.087Z,-2.42
2019-03-24T17:19:35.963Z,-2.42
2019-03-24T17:20:36.113Z,-2.43
2019-03-24T17:21:36.498Z,-2.42
2019-03-24T17:22:36.969Z,-2.43
2019-03-24T17:23:37.484Z,-2.42
2019-03-24T17:24:37.911Z,-2.42
2019-03-24T17:25:38.381Z,-2.42
2019-03-24T17:26:38.858Z,-2.42
2019-03-24T17:28:39.796Z,-2.43
2019-03-24T17:29:40.265Z,-2.42
2019-03-24T17:30:40.737Z,-2.42
2019-03-24T17:31:41.247Z,-2.40
2019-03-24T17:32:41.731Z,-2.42
2019-03-24T17:33:42.352Z,-2.43
2019-03-24T17:34:42.624Z,-2.42
2019-03-24T17:35:43.094Z,-2.42
2019-03-24T17:36:43.563Z,-2.42
2019-03-24T17:37:44.047Z,-2.43
2019-03-24T17:38:44.510Z,-2.42
2019-03-24T17:39:44.982Z,-2.41
2019-03-24T17:40:45.450Z,-2.43
2019-03-24T17:41:45.922Z,-2.41
2019-03-24T17:43:46.867Z,-2.42
2019-03-24T17:44:47.336Z,-2.42
2019-03-24T17:45:47.816Z,-2.43
2019-03-24T17:46:48.488Z,-2.42
2019-03-24T17:47:48.755Z,-2.42
2019-03-24T17:48:49.226Z,-2.44
2019-03-24T17:49:49.697Z,-2.41
2019-03-24T17:50:50.175Z,-2.41
2019-03-24T17:52:00.466Z,-2.42
2019-03-24T17:52:51.113Z,-2.42
2019-03-24T17:53:51.586Z,-2.41
2019-03-24T17:55:52.529Z,-2.43
2019-03-24T17:56:53.002Z,-2.40
2019-03-24T17:57:53.472Z,-2.42
2019-03-24T17:58:53.950Z,-2.41
2019-03-24T17:59:54.419Z,-2.41
2019-03-24T18:00:54.890Z,-2.42
2019-03-24T18:01:55.365Z,-2.40
2019-03-24T18:02:55.834Z,-2.42
2019-03-24T18:03:56.308Z,-2.42
2019-03-24T18:04:56.780Z,-2.40
2019-03-24T18:05:59.481Z,-2.41
2019-03-24T18:06:57.725Z,-2.40
2019-03-24T18:07:58.199Z,-2.40
2019-03-24T18:08:58.668Z,-2.42
2019-03-24T18:09:59.141Z,-2.41
2019-03-24T18:10:59.616Z,-2.41
2019-03-24T18:12:00.291Z,-2.42
2019-03-24T18:13:00.555Z,-2.42
2019-03-24T18:14:01.028Z,-2.41
2019-03-24T18:15:01.500Z,-2.40
2019-03-24T18:16:01.972Z,-2.42
2019-03-24T18:17:03.194Z,-2.40
2019-03-24T18:18:03.320Z,-2.41
2019-03-24T18:19:03.386Z,-2.40
2019-03-24T18:20:04.062Z,-2.40
2019-03-24T18:21:04.326Z,-2.40
2019-03-24T18:22:11.500Z,-2.40
2019-03-24T18:23:05.318Z,-2.40
2019-03-24T18:24:05.742Z,-2.40
2019-03-24T18:25:06.204Z,-2.40
2019-03-24T18:26:06.676Z,-2.40
2019-03-24T18:27:07.145Z,-2.40
2019-03-24T18:28:07.613Z,-2.40
2019-03-24T18:29:08.081Z,-2.41
2019-03-24T18:30:08.553Z,-2.41
2019-03-24T18:31:09.020Z,-2.41
2019-03-24T18:32:09.487Z,-2.40
2019-03-24T18:33:09.956Z,-2.40
2019-03-24T18:34:10.425Z,-2.42
2019-03-24T18:35:10.895Z,-2.40
2019-03-24T18:36:11.362Z,-2.40
2019-03-24T18:37:12.032Z,-2.40
2019-03-24T18:38:12.297Z,-2.40
2019-03-24T18:39:12.767Z,-2.41
2019-03-24T18:40:13.243Z,-2.40
2019-03-24T18:41:13.706Z,-2.40
2019-03-24T18:42:14.170Z,-2.41
2019-03-24T18:43:14.637Z,-2.40
2019-03-24T18:44:15.108Z,-2.40
2019-03-24T18:45:15.574Z,-2.42
2019-03-24T18:46:16.041Z,-2.40
2019-03-24T18:47:16.511Z,-2.40
2019-03-24T18:48:17.028Z,-2.41
2019-03-24T18:49:17.449Z,-2.42
2019-03-24T18:50:17.920Z,-2.39
2019-03-24T18:51:18.390Z,-2.40
2019-03-24T18:52:22.953Z,-2.41
2019-03-24T18:53:19.323Z,-2.40
2019-03-24T18:54:19.789Z,-2.39
2019-03-24T18:55:20.258Z,-2.40
2019-03-24T18:56:20.726Z,-2.40
2019-03-24T18:57:21.196Z,-2.40
2019-03-24T18:58:21.718Z,-2.40
2019-03-24T18:59:22.135Z,-2.38
2019-03-24T19:00:22.606Z,-2.40
2019-03-24T19:01:23.073Z,-2.40
2019-03-24T19:02:23.540Z,-2.40
2019-03-24T19:03:24.062Z,-2.40
2019-03-24T19:04:24.481Z,-2.39
2019-03-24T19:05:24.949Z,-2.40
2019-03-24T19:06:25.456Z,-2.39
2019-03-24T19:07:25.894Z,-2.38
2019-03-24T19:08:26.358Z,-2.40
2019-03-24T19:09:26.830Z,-2.40
2019-03-24T19:10:27.299Z,-2.41
2019-03-24T19:11:27.768Z,-2.38
2019-03-24T19:12:28.237Z,-2.40
2019-03-24T19:13:28.758Z,-2.40
2019-03-24T19:14:29.178Z,-2.40
2019-03-24T19:15:29.649Z,-2.40
2019-03-24T19:16:30.122Z,-2.41
2019-03-24T19:17:30.590Z,-2.39
2019-03-24T19:18:31.062Z,-2.40
2019-03-24T19:19:31.578Z,-2.40
2019-03-24T19:20:32.001Z,-2.40
2019-03-24T19:21:32.474Z,-2.40
2019-03-24T19:22:33.701Z,-2.40
2019-03-24T19:23:33.413Z,-2.39
2019-03-24T19:24:33.882Z,-2.40
2019-03-24T19:25:34.353Z,-2.41
2019-03-24T19:26:34.825Z,-2.41
2019-03-24T19:27:35.297Z,-2.40
2019-03-24T19:28:35.769Z,-2.42
2019-03-24T19:29:36.237Z,-2.42
2019-03-24T19:30:36.711Z,-2.40
2019-03-24T19:31:37.183Z,-2.42
2019-03-24T19:32:37.651Z,-2.41
2019-03-24T19:33:38.121Z,-2.42
2019-03-24T19:34:38.593Z,-2.42
2019-03-24T19:35:39.063Z,-2.40
2019-03-24T19:36:39.536Z,-2.40
2019-03-24T19:37:40.007Z,-2.41
2019-03-24T19:38:40.530Z,-2.42
2019-03-24T19:39:40.950Z,-2.42
2019-03-24T19:40:41.423Z,-2.42
2019-03-24T19:41:41.894Z,-2.42
2019-03-24T19:42:42.365Z,-2.40
2019-03-24T19:43:42.837Z,-2.42
2019-03-24T19:44:43.312Z,-2.42
2019-03-24T19:45:43.781Z,-2.42
2019-03-24T19:46:44.251Z,-2.42
2019-03-24T19:47:44.724Z,-2.42
2019-03-24T19:48:45.194Z,-2.43
2019-03-24T19:50:46.139Z,-2.42
2019-03-24T19:51:46.614Z,-2.42
2019-03-24T19:52:47.083Z,-2.42
2019-03-24T19:53:47.558Z,-2.44
2019-03-24T19:54:48.026Z,-2.43
2019-03-24T19:55:48.503Z,-2.43
2019-03-24T19:56:48.972Z,-2.44
2019-03-24T19:57:49.444Z,-2.44
2019-03-24T19:58:49.914Z,-2.42
2019-03-24T19:59:50.387Z,-2.42
2019-03-24T20:00:50.861Z,-2.44
2019-03-24T20:01:51.334Z,-2.43
2019-03-24T20:02:51.803Z,-2.44
2019-03-24T20:03:52.327Z,-2.46
2019-03-24T20:04:52.749Z,-2.44
2019-03-24T20:05:53.219Z,-2.44
2019-03-24T20:06:53.693Z,-2.42
2019-03-24T20:07:54.168Z,-2.44
2019-03-24T20:08:54.688Z,-2.44
2019-03-24T20:10:55.581Z,-2.44
2019-03-24T20:11:56.194Z,-2.44
2019-03-24T20:12:56.526Z,-2.44
2019-03-24T20:13:56.999Z,-2.42
2019-03-24T20:14:57.469Z,-2.44
2019-03-24T20:15:57.942Z,-2.44
2019-03-24T20:16:58.412Z,-2.44
2019-03-24T20:17:58.891Z,-2.44
2019-03-24T20:18:59.357Z,-2.44
2019-03-24T20:19:59.828Z,-2.44
2019-03-24T20:21:00.322Z,-2.44
2019-03-24T20:22:00.773Z,-2.45
2019-03-24T20:23:01.242Z,-2.45
2019-03-24T20:24:01.762Z,-2.44
2019-03-24T20:25:02.183Z,-2.44
2019-03-24T20:26:02.650Z,-2.44
2019-03-24T20:27:03.122Z,-2.46
2019-03-24T20:28:03.593Z,-2.46
2019-03-24T20:29:04.109Z,-2.45
2019-03-24T20:30:04.586Z,-2.44
2019-03-24T20:31:04.997Z,-2.46
2019-03-24T20:32:05.464Z,-2.46